PADK/ADK METAR and TAF weather

Enter ICAO airport designator
Station Type Date Time Source
PADK METAR 2021/03/05 07:56 UTC NOAA

PADK 050756Z AUTO 25027G37KT 10SM BKN026 02/M02 A3009 RMK AO2 PK WND 26038/0741 SNE00 SLP190 P0000 T00171017 FZRANO


Station Type Date Time Source
PADK Decoded METAR 2021/03/05 07:56 UTC NOAA

Adak Island, Adak Airport, AK, United States (PADK) 51-52-40N 176-38-45W 4M
Mar 05, 2021 - 02:56 AM EST / 2021.03.05 0756 UTC
Wind: from the WSW (250 degrees) at 31 MPH (27 KT) gusting to 43 MPH (37 KT):0
Visibility: 10 mile(s):0
Sky conditions: mostly cloudy
Precipitation last hour: A trace
Temperature: 35.1 F (1.7 C)
Dew Point: 28.9 F (-1.7 C)
Relative Humidity: 78%
Pressure (altimeter): 30.09 in. Hg (1018 hPa)
ob: PADK 050756Z AUTO 25027G37KT 10SM BKN026 02/M02 A3009 RMK AO2 PK WND 26038/0741 SNE00 SLP190 P0000 T00171017 FZRANO
cycle: 8

Station Type Date Time Source
PADK TAF 2007/04/07 12:54 UTC NOAA

TAF PADK 070404 33010G15KT 9999 FEW025 BKN030 OVC050 QNH2900INS T03/00Z TM01/18Z COR 1205 LAST NO
AMDS AFT 0712;

Example: see airport list